sensor_id;sensor_type;location;lat;lon;timestamp;temperature;humidity
75363;DHT22;64122;51.988;5.892;2023-12-29T00:00:37;12.72;64.33
75363;DHT22;64122;51.988;5.892;2023-12-29T00:03:06;12.71;64.34
75363;DHT22;64122;51.988;5.892;2023-12-29T00:05:36;12.72;64.36
75363;DHT22;64122;51.988;5.892;2023-12-29T00:08:06;12.76;64.34
75363;DHT22;64122;51.988;5.892;2023-12-29T00:10:35;12.76;64.18
75363;DHT22;64122;51.988;5.892;2023-12-29T00:13:07;12.76;64.18
75363;DHT22;64122;51.988;5.892;2023-12-29T00:15:36;12.78;64.08
75363;DHT22;64122;51.988;5.892;2023-12-29T00:18:05;12.77;63.98
75363;DHT22;64122;51.988;5.892;2023-12-29T00:20:35;12.79;64.01
75363;DHT22;64122;51.988;5.892;2023-12-29T00:23:04;12.81;63.97
75363;DHT22;64122;51.988;5.892;2023-12-29T00:25:35;12.80;63.98
75363;DHT22;64122;51.988;5.892;2023-12-29T00:28:07;12.78;64.36
75363;DHT22;64122;51.988;5.892;2023-12-29T00:30:38;12.74;65.23
75363;DHT22;64122;51.988;5.892;2023-12-29T00:33:08;12.65;65.88
75363;DHT22;64122;51.988;5.892;2023-12-29T00:35:38;12.58;66.17
75363;DHT22;64122;51.988;5.892;2023-12-29T00:38:07;12.55;66.50
75363;DHT22;64122;51.988;5.892;2023-12-29T00:40:36;12.55;66.52
75363;DHT22;64122;51.988;5.892;2023-12-29T00:43:08;12.51;66.57
75363;DHT22;64122;51.988;5.892;2023-12-29T00:45:37;12.49;66.61
75363;DHT22;64122;51.988;5.892;2023-12-29T00:48:07;12.47;66.43
75363;DHT22;64122;51.988;5.892;2023-12-29T00:50:36;12.49;66.49
75363;DHT22;64122;51.988;5.892;2023-12-29T00:53:05;12.50;66.17
75363;DHT22;64122;51.988;5.892;2023-12-29T00:55:34;12.51;66.11
75363;DHT22;64122;51.988;5.892;2023-12-29T00:58:04;12.56;65.94
75363;DHT22;64122;51.988;5.892;2023-12-29T01:00:35;12.59;65.74
75363;DHT22;64122;51.988;5.892;2023-12-29T01:03:05;12.60;65.54
75363;DHT22;64122;51.988;5.892;2023-12-29T01:05:34;12.60;65.30
75363;DHT22;64122;51.988;5.892;2023-12-29T01:08:04;12.60;65.27
75363;DHT22;64122;51.988;5.892;2023-12-29T01:10:33;12.63;65.35
75363;DHT22;64122;51.988;5.892;2023-12-29T01:13:03;12.64;65.30
75363;DHT22;64122;51.988;5.892;2023-12-29T01:15:35;12.62;65.34
75363;DHT22;64122;51.988;5.892;2023-12-29T01:18:07;12.63;65.39
75363;DHT22;64122;51.988;5.892;2023-12-29T01:20:37;12.62;65.62
75363;DHT22;64122;51.988;5.892;2023-12-29T01:23:07;12.62;65.62
75363;DHT22;64122;51.988;5.892;2023-12-29T01:25:36;12.62;65.84
75363;DHT22;64122;51.988;5.892;2023-12-29T01:28:05;12.61;66.01
75363;DHT22;64122;51.988;5.892;2023-12-29T01:30:37;12.59;66.03
75363;DHT22;64122;51.988;5.892;2023-12-29T01:33:06;12.58;66.19
75363;DHT22;64122;51.988;5.892;2023-12-29T01:35:35;12.53;66.47
75363;DHT22;64122;51.988;5.892;2023-12-29T01:38:07;12.50;66.58
75363;DHT22;64122;51.988;5.892;2023-12-29T01:40:43;12.47;66.62
75363;DHT22;64122;51.988;5.892;2023-12-29T01:43:13;12.45;66.85
75363;DHT22;64122;51.988;5.892;2023-12-29T01:45:45;12.45;66.82
75363;DHT22;64122;51.988;5.892;2023-12-29T01:48:14;12.43;66.93
75363;DHT22;64122;51.988;5.892;2023-12-29T01:50:44;12.43;67.02
75363;DHT22;64122;51.988;5.892;2023-12-29T01:53:14;12.46;66.95
75363;DHT22;64122;51.988;5.892;2023-12-29T01:55:43;12.45;66.90
75363;DHT22;64122;51.988;5.892;2023-12-29T01:58:13;12.45;66.98
75363;DHT22;64122;51.988;5.892;2023-12-29T02:00:45;12.43;66.86
75363;DHT22;64122;51.988;5.892;2023-12-29T02:03:14;12.43;66.93
75363;DHT22;64122;51.988;5.892;2023-12-29T02:05:44;12.44;66.91
75363;DHT22;64122;51.988;5.892;2023-12-29T02:08:14;12.42;66.92
75363;DHT22;64122;51.988;5.892;2023-12-29T02:10:44;12.40;67.11
75363;DHT22;64122;51.988;5.892;2023-12-29T02:13:14;12.40;67.16
75363;DHT22;64122;51.988;5.892;2023-12-29T02:15:46;12.41;67.18
75363;DHT22;64122;51.988;5.892;2023-12-29T02:18:17;12.40;67.29
75363;DHT22;64122;51.988;5.892;2023-12-29T02:20:47;12.36;67.52
75363;DHT22;64122;51.988;5.892;2023-12-29T02:23:17;12.37;67.65
75363;DHT22;64122;51.988;5.892;2023-12-29T02:25:50;12.36;67.83
75363;DHT22;64122;51.988;5.892;2023-12-29T02:28:23;12.31;68.23
75363;DHT22;64122;51.988;5.892;2023-12-29T02:30:58;12.29;68.48
75363;DHT22;64122;51.988;5.892;2023-12-29T02:33:33;12.26;68.55
75363;DHT22;64122;51.988;5.892;2023-12-29T02:36:06;12.25;68.72
75363;DHT22;64122;51.988;5.892;2023-12-29T02:38:35;12.27;68.72
75363;DHT22;64122;51.988;5.892;2023-12-29T02:41:07;12.21;68.96
75363;DHT22;64122;51.988;5.892;2023-12-29T02:43:37;12.21;69.05
75363;DHT22;64122;51.988;5.892;2023-12-29T02:46:06;12.17;69.26
75363;DHT22;64122;51.988;5.892;2023-12-29T02:48:35;12.15;69.37
75363;DHT22;64122;51.988;5.892;2023-12-29T02:51:05;12.16;69.42
75363;DHT22;64122;51.988;5.892;2023-12-29T02:53:34;12.14;69.48
75363;DHT22;64122;51.988;5.892;2023-12-29T02:56:07;12.16;69.47
75363;DHT22;64122;51.988;5.892;2023-12-29T02:58:36;12.11;69.48
75363;DHT22;64122;51.988;5.892;2023-12-29T03:01:05;12.10;69.48
75363;DHT22;64122;51.988;5.892;2023-12-29T03:03:34;12.10;69.51
75363;DHT22;64122;51.988;5.892;2023-12-29T03:06:06;12.10;69.53
75363;DHT22;64122;51.988;5.892;2023-12-29T03:08:35;12.11;69.51
75363;DHT22;64122;51.988;5.892;2023-12-29T03:11:08;12.12;69.45
75363;DHT22;64122;51.988;5.892;2023-12-29T03:13:38;12.11;69.45
75363;DHT22;64122;51.988;5.892;2023-12-29T03:16:07;12.15;69.49
75363;DHT22;64122;51.988;5.892;2023-12-29T03:18:36;12.14;69.53
75363;DHT22;64122;51.988;5.892;2023-12-29T03:21:08;12.16;69.29
75363;DHT22;64122;51.988;5.892;2023-12-29T03:23:37;12.15;69.31
75363;DHT22;64122;51.988;5.892;2023-12-29T03:26:09;12.13;69.13
75363;DHT22;64122;51.988;5.892;2023-12-29T03:28:38;12.15;69.09
75363;DHT22;64122;51.988;5.892;2023-12-29T03:31:07;12.16;68.94
75363;DHT22;64122;51.988;5.892;2023-12-29T03:33:36;12.14;68.87
75363;DHT22;64122;51.988;5.892;2023-12-29T03:36:06;12.16;68.74
75363;DHT22;64122;51.988;5.892;2023-12-29T03:38:37;12.19;68.71
75363;DHT22;64122;51.988;5.892;2023-12-29T03:41:09;12.22;68.58
75363;DHT22;64122;51.988;5.892;2023-12-29T03:43:39;12.27;68.55
75363;DHT22;64122;51.988;5.892;2023-12-29T03:46:15;12.27;68.33
75363;DHT22;64122;51.988;5.892;2023-12-29T03:48:45;12.29;68.18
75363;DHT22;64122;51.988;5.892;2023-12-29T03:51:15;12.31;68.03
75363;DHT22;64122;51.988;5.892;2023-12-29T03:53:44;12.31;67.94
75363;DHT22;64122;51.988;5.892;2023-12-29T03:56:18;12.32;67.71
75363;DHT22;64122;51.988;5.892;2023-12-29T03:58:47;12.36;67.72
75363;DHT22;64122;51.988;5.892;2023-12-29T04:01:17;12.35;67.85
75363;DHT22;64122;51.988;5.892;2023-12-29T04:03:46;12.34;67.85
75363;DHT22;64122;51.988;5.892;2023-12-29T04:06:15;12.33;67.83
75363;DHT22;64122;51.988;5.892;2023-12-29T04:08:44;12.32;67.68
75363;DHT22;64122;51.988;5.892;2023-12-29T04:11:16;12.32;67.34
75363;DHT22;64122;51.988;5.892;2023-12-29T04:13:45;12.35;67.14
75363;DHT22;64122;51.988;5.892;2023-12-29T04:16:15;12.36;66.87
75363;DHT22;64122;51.988;5.892;2023-12-29T04:18:44;12.35;66.66
75363;DHT22;64122;51.988;5.892;2023-12-29T04:21:14;12.36;66.47
75363;DHT22;64122;51.988;5.892;2023-12-29T04:23:43;12.38;66.52
75363;DHT22;64122;51.988;5.892;2023-12-29T04:26:13;12.35;66.46
75363;DHT22;64122;51.988;5.892;2023-12-29T04:28:47;12.35;66.38
75363;DHT22;64122;51.988;5.892;2023-12-29T04:31:16;12.34;66.43
75363;DHT22;64122;51.988;5.892;2023-12-29T04:33:45;12.32;66.16
75363;DHT22;64122;51.988;5.892;2023-12-29T04:36:14;12.32;66.18
75363;DHT22;64122;51.988;5.892;2023-12-29T04:38:45;12.31;66.24
75363;DHT22;64122;51.988;5.892;2023-12-29T04:41:14;12.31;66.14
75363;DHT22;64122;51.988;5.892;2023-12-29T04:43:43;12.30;66.15
75363;DHT22;64122;51.988;5.892;2023-12-29T04:46:15;12.29;66.13
75363;DHT22;64122;51.988;5.892;2023-12-29T04:48:44;12.32;66.12
75363;DHT22;64122;51.988;5.892;2023-12-29T04:51:14;12.34;66.00
75363;DHT22;64122;51.988;5.892;2023-12-29T04:53:43;12.34;65.82
75363;DHT22;64122;51.988;5.892;2023-12-29T04:56:12;12.36;65.78
75363;DHT22;64122;51.988;5.892;2023-12-29T04:58:41;12.35;65.75
75363;DHT22;64122;51.988;5.892;2023-12-29T05:01:10;12.36;65.72
75363;DHT22;64122;51.988;5.892;2023-12-29T05:03:42;12.34;65.36
75363;DHT22;64122;51.988;5.892;2023-12-29T05:06:11;12.33;65.40
75363;DHT22;64122;51.988;5.892;2023-12-29T05:08:41;12.33;65.30
75363;DHT22;64122;51.988;5.892;2023-12-29T05:11:10;12.32;65.16
75363;DHT22;64122;51.988;5.892;2023-12-29T05:13:39;12.33;65.14
75363;DHT22;64122;51.988;5.892;2023-12-29T05:16:08;12.32;65.04
75363;DHT22;64122;51.988;5.892;2023-12-29T05:18:37;12.33;65.07
75363;DHT22;64122;51.988;5.892;2023-12-29T05:21:14;12.30;65.11
75363;DHT22;64122;51.988;5.892;2023-12-29T05:23:43;12.30;65.08
75363;DHT22;64122;51.988;5.892;2023-12-29T05:26:14;12.30;65.17
75363;DHT22;64122;51.988;5.892;2023-12-29T05:28:43;12.26;65.17
75363;DHT22;64122;51.988;5.892;2023-12-29T05:31:12;12.26;65.29
75363;DHT22;64122;51.988;5.892;2023-12-29T05:33:43;12.26;65.26
75363;DHT22;64122;51.988;5.892;2023-12-29T05:36:15;12.21;65.27
75363;DHT22;64122;51.988;5.892;2023-12-29T05:38:45;12.21;65.36
75363;DHT22;64122;51.988;5.892;2023-12-29T05:41:15;12.20;65.41
75363;DHT22;64122;51.988;5.892;2023-12-29T05:43:44;12.19;65.34
75363;DHT22;64122;51.988;5.892;2023-12-29T05:46:13;12.18;65.49
75363;DHT22;64122;51.988;5.892;2023-12-29T05:48:43;12.16;65.48
75363;DHT22;64122;51.988;5.892;2023-12-29T05:51:15;12.16;65.50
75363;DHT22;64122;51.988;5.892;2023-12-29T05:53:44;12.12;65.59
75363;DHT22;64122;51.988;5.892;2023-12-29T05:56:14;12.08;65.58
75363;DHT22;64122;51.988;5.892;2023-12-29T05:58:44;12.07;65.64
75363;DHT22;64122;51.988;5.892;2023-12-29T06:01:13;12.11;65.69
75363;DHT22;64122;51.988;5.892;2023-12-29T06:03:42;12.08;65.78
75363;DHT22;64122;51.988;5.892;2023-12-29T06:06:12;12.05;65.85
75363;DHT22;64122;51.988;5.892;2023-12-29T06:08:43;12.02;65.90
75363;DHT22;64122;51.988;5.892;2023-12-29T06:11:15;12.03;65.95
75363;DHT22;64122;51.988;5.892;2023-12-29T06:13:45;12.06;65.95
75363;DHT22;64122;51.988;5.892;2023-12-29T06:16:18;12.08;65.89
75363;DHT22;64122;51.988;5.892;2023-12-29T06:18:48;12.10;65.91
75363;DHT22;64122;51.988;5.892;2023-12-29T06:21:17;12.08;66.01
75363;DHT22;64122;51.988;5.892;2023-12-29T06:23:49;12.05;66.07
75363;DHT22;64122;51.988;5.892;2023-12-29T06:26:20;12.02;66.20
75363;DHT22;64122;51.988;5.892;2023-12-29T06:28:49;12.01;66.36
75363;DHT22;64122;51.988;5.892;2023-12-29T06:31:18;11.97;66.42
75363;DHT22;64122;51.988;5.892;2023-12-29T06:33:48;11.94;66.53
75363;DHT22;64122;51.988;5.892;2023-12-29T06:36:17;11.93;66.67
75363;DHT22;64122;51.988;5.892;2023-12-29T06:38:49;11.96;66.62
75363;DHT22;64122;51.988;5.892;2023-12-29T06:41:19;11.98;66.72
75363;DHT22;64122;51.988;5.892;2023-12-29T06:43:48;11.99;66.74
75363;DHT22;64122;51.988;5.892;2023-12-29T06:46:18;12.00;66.80
75363;DHT22;64122;51.988;5.892;2023-12-29T06:48:47;12.00;66.84
75363;DHT22;64122;51.988;5.892;2023-12-29T06:51:17;12.02;66.90
75363;DHT22;64122;51.988;5.892;2023-12-29T06:53:51;12.03;66.88
75363;DHT22;64122;51.988;5.892;2023-12-29T06:56:20;12.03;66.98
75363;DHT22;64122;51.988;5.892;2023-12-29T06:58:52;12.06;67.04
75363;DHT22;64122;51.988;5.892;2023-12-29T07:01:22;12.10;66.96
75363;DHT22;64122;51.988;5.892;2023-12-29T07:03:51;12.13;67.10
75363;DHT22;64122;51.988;5.892;2023-12-29T07:06:20;12.15;67.32
75363;DHT22;64122;51.988;5.892;2023-12-29T07:08:52;12.11;67.72
75363;DHT22;64122;51.988;5.892;2023-12-29T07:11:21;12.10;68.10
75363;DHT22;64122;51.988;5.892;2023-12-29T07:13:51;12.06;68.39
75363;DHT22;64122;51.988;5.892;2023-12-29T07:16:20;12.04;68.58
75363;DHT22;64122;51.988;5.892;2023-12-29T07:18:49;12.04;68.75
75363;DHT22;64122;51.988;5.892;2023-12-29T07:21:18;11.99;68.98
75363;DHT22;64122;51.988;5.892;2023-12-29T07:23:48;11.93;69.22
75363;DHT22;64122;51.988;5.892;2023-12-29T07:26:20;11.88;69.52
75363;DHT22;64122;51.988;5.892;2023-12-29T07:28:49;11.84;69.84
75363;DHT22;64122;51.988;5.892;2023-12-29T07:31:20;11.78;70.11
75363;DHT22;64122;51.988;5.892;2023-12-29T07:33:49;11.76;70.31
75363;DHT22;64122;51.988;5.892;2023-12-29T07:36:19;11.75;70.44
75363;DHT22;64122;51.988;5.892;2023-12-29T07:38:49;11.73;70.71
75363;DHT22;64122;51.988;5.892;2023-12-29T07:41:21;11.74;70.66
75363;DHT22;64122;51.988;5.892;2023-12-29T07:43:50;11.73;70.86
75363;DHT22;64122;51.988;5.892;2023-12-29T07:46:24;11.70;71.18
75363;DHT22;64122;51.988;5.892;2023-12-29T07:48:53;11.67;71.46
75363;DHT22;64122;51.988;5.892;2023-12-29T07:51:23;11.64;71.70
75363;DHT22;64122;51.988;5.892;2023-12-29T07:53:52;11.62;71.95
75363;DHT22;64122;51.988;5.892;2023-12-29T07:56:24;11.62;71.96
75363;DHT22;64122;51.988;5.892;2023-12-29T07:58:53;11.60;72.22
75363;DHT22;64122;51.988;5.892;2023-12-29T08:01:22;11.57;72.42
75363;DHT22;64122;51.988;5.892;2023-12-29T08:03:52;11.58;72.53
75363;DHT22;64122;51.988;5.892;2023-12-29T08:06:21;11.52;72.80
75363;DHT22;64122;51.988;5.892;2023-12-29T08:08:50;11.49;73.03
75363;DHT22;64122;51.988;5.892;2023-12-29T08:11:20;11.48;73.16
75363;DHT22;64122;51.988;5.892;2023-12-29T08:13:52;11.48;73.17
75363;DHT22;64122;51.988;5.892;2023-12-29T08:16:21;11.49;73.28
75363;DHT22;64122;51.988;5.892;2023-12-29T08:18:50;11.49;73.28
75363;DHT22;64122;51.988;5.892;2023-12-29T08:21:20;11.51;73.28
75363;DHT22;64122;51.988;5.892;2023-12-29T08:23:49;11.48;73.57
75363;DHT22;64122;51.988;5.892;2023-12-29T08:26:19;11.48;73.57
75363;DHT22;64122;51.988;5.892;2023-12-29T08:28:48;11.53;73.52
75363;DHT22;64122;51.988;5.892;2023-12-29T08:31:20;11.55;73.38
75363;DHT22;64122;51.988;5.892;2023-12-29T08:33:52;11.56;73.33
75363;DHT22;64122;51.988;5.892;2023-12-29T08:36:24;11.57;73.22
75363;DHT22;64122;51.988;5.892;2023-12-29T08:38:53;11.56;73.15
75363;DHT22;64122;51.988;5.892;2023-12-29T08:41:23;11.59;73.12
75363;DHT22;64122;51.988;5.892;2023-12-29T08:43:52;11.60;73.00
75363;DHT22;64122;51.988;5.892;2023-12-29T08:46:24;11.61;72.97
75363;DHT22;64122;51.988;5.892;2023-12-29T08:48:53;11.62;72.94
75363;DHT22;64122;51.988;5.892;2023-12-29T08:51:22;11.68;72.81
75363;DHT22;64122;51.988;5.892;2023-12-29T08:53:51;11.70;72.70
75363;DHT22;64122;51.988;5.892;2023-12-29T08:56:21;11.73;72.59
75363;DHT22;64122;51.988;5.892;2023-12-29T08:58:50;11.76;72.54
75363;DHT22;64122;51.988;5.892;2023-12-29T09:01:19;11.83;72.30
75363;DHT22;64122;51.988;5.892;2023-12-29T09:03:51;11.85;72.19
75363;DHT22;64122;51.988;5.892;2023-12-29T09:06:20;11.91;72.02
75363;DHT22;64122;51.988;5.892;2023-12-29T09:08:50;11.93;71.94
75363;DHT22;64122;51.988;5.892;2023-12-29T09:11:19;11.99;71.80
75363;DHT22;64122;51.988;5.892;2023-12-29T09:13:48;12.01;71.64
75363;DHT22;64122;51.988;5.892;2023-12-29T09:16:17;12.00;71.52
75363;DHT22;64122;51.988;5.892;2023-12-29T09:18:47;12.00;71.51
75363;DHT22;64122;51.988;5.892;2023-12-29T09:21:19;12.01;71.38
75363;DHT22;64122;51.988;5.892;2023-12-29T09:23:49;12.05;71.31
75363;DHT22;64122;51.988;5.892;2023-12-29T09:26:18;12.12;71.13
75363;DHT22;64122;51.988;5.892;2023-12-29T09:28:47;12.20;70.93
75363;DHT22;64122;51.988;5.892;2023-12-29T09:31:17;12.26;70.67
75363;DHT22;64122;51.988;5.892;2023-12-29T09:33:46;12.28;70.53
75363;DHT22;64122;51.988;5.892;2023-12-29T09:36:18;12.28;70.45
75363;DHT22;64122;51.988;5.892;2023-12-29T09:38:47;12.28;70.45
75363;DHT22;64122;51.988;5.892;2023-12-29T09:41:18;12.29;70.29
75363;DHT22;64122;51.988;5.892;2023-12-29T09:43:49;12.31;70.29
75363;DHT22;64122;51.988;5.892;2023-12-29T09:46:19;12.34;70.29
75363;DHT22;64122;51.988;5.892;2023-12-29T09:48:52;12.34;70.15
75363;DHT22;64122;51.988;5.892;2023-12-29T09:51:26;12.34;70.03
75363;DHT22;64122;51.988;5.892;2023-12-29T09:53:56;12.38;69.91
75363;DHT22;64122;51.988;5.892;2023-12-29T09:56:25;12.36;69.86
75363;DHT22;64122;51.988;5.892;2023-12-29T09:58:56;12.42;69.75
75363;DHT22;64122;51.988;5.892;2023-12-29T10:01:27;12.44;69.58
75363;DHT22;64122;51.988;5.892;2023-12-29T10:03:57;12.46;69.45
75363;DHT22;64122;51.988;5.892;2023-12-29T10:06:31;12.49;69.39
75363;DHT22;64122;51.988;5.892;2023-12-29T10:09:03;12.55;69.26
75363;DHT22;64122;51.988;5.892;2023-12-29T10:11:35;12.62;69.10
75363;DHT22;64122;51.988;5.892;2023-12-29T10:14:17;12.67;68.94
75363;DHT22;64122;51.988;5.892;2023-12-29T10:16:53;12.72;68.81
75363;DHT22;64122;51.988;5.892;2023-12-29T10:19:30;12.80;68.64
75363;DHT22;64122;51.988;5.892;2023-12-29T10:22:10;12.86;68.56
75363;DHT22;64122;51.988;5.892;2023-12-29T10:24:40;12.86;68.49
75363;DHT22;64122;51.988;5.892;2023-12-29T10:27:12;12.87;68.48
75363;DHT22;64122;51.988;5.892;2023-12-29T10:29:41;12.84;68.47
75363;DHT22;64122;51.988;5.892;2023-12-29T10:32:10;12.80;68.68
75363;DHT22;64122;51.988;5.892;2023-12-29T10:34:39;12.77;68.78
75363;DHT22;64122;51.988;5.892;2023-12-29T10:37:11;12.78;68.81
75363;DHT22;64122;51.988;5.892;2023-12-29T10:39:55;12.79;68.74
75363;DHT22;64122;51.988;5.892;2023-12-29T10:42:24;12.85;68.83
75363;DHT22;64122;51.988;5.892;2023-12-29T10:45:04;12.91;68.64
75363;DHT22;64122;51.988;5.892;2023-12-29T10:47:34;13.03;68.49
75363;DHT22;64122;51.988;5.892;2023-12-29T10:50:05;13.11;68.09
75363;DHT22;64122;51.988;5.892;2023-12-29T10:52:37;13.17;67.97
75363;DHT22;64122;51.988;5.892;2023-12-29T10:55:09;13.20;67.79
75363;DHT22;64122;51.988;5.892;2023-12-29T10:57:39;13.27;67.60
75363;DHT22;64122;51.988;5.892;2023-12-29T11:00:10;13.36;67.42
75363;DHT22;64122;51.988;5.892;2023-12-29T11:02:40;13.47;67.17
75363;DHT22;64122;51.988;5.892;2023-12-29T11:05:09;13.47;67.12
75363;DHT22;64122;51.988;5.892;2023-12-29T11:07:42;13.43;67.13
75363;DHT22;64122;51.988;5.892;2023-12-29T11:10:11;13.44;67.03
75363;DHT22;64122;51.988;5.892;2023-12-29T11:12:40;13.32;67.17
75363;DHT22;64122;51.988;5.892;2023-12-29T11:15:11;13.31;67.29
75363;DHT22;64122;51.988;5.892;2023-12-29T11:17:43;13.24;67.23
75363;DHT22;64122;51.988;5.892;2023-12-29T11:20:16;13.24;67.17
75363;DHT22;64122;51.988;5.892;2023-12-29T11:22:48;13.31;67.07
75363;DHT22;64122;51.988;5.892;2023-12-29T11:25:18;13.40;66.85
75363;DHT22;64122;51.988;5.892;2023-12-29T11:27:49;13.44;66.27
75363;DHT22;64122;51.988;5.892;2023-12-29T11:30:18;13.47;65.91
75363;DHT22;64122;51.988;5.892;2023-12-29T11:32:53;13.43;65.59
75363;DHT22;64122;51.988;5.892;2023-12-29T11:35:27;13.38;65.57
75363;DHT22;64122;51.988;5.892;2023-12-29T11:38:18;13.38;65.82
75363;DHT22;64122;51.988;5.892;2023-12-29T11:40:52;13.40;65.34
75363;DHT22;64122;51.988;5.892;2023-12-29T11:43:24;13.26;65.46
75363;DHT22;64122;51.988;5.892;2023-12-29T11:45:54;13.23;65.49
75363;DHT22;64122;51.988;5.892;2023-12-29T11:48:53;13.16;65.43
75363;DHT22;64122;51.988;5.892;2023-12-29T11:51:31;13.15;65.59
75363;DHT22;64122;51.988;5.892;2023-12-29T11:54:04;13.10;65.51
75363;DHT22;64122;51.988;5.892;2023-12-29T11:56:35;13.10;65.61
75363;DHT22;64122;51.988;5.892;2023-12-29T11:59:16;13.14;65.31
75363;DHT22;64122;51.988;5.892;2023-12-29T12:01:49;13.12;65.33
75363;DHT22;64122;51.988;5.892;2023-12-29T12:04:35;13.15;65.56
75363;DHT22;64122;51.988;5.892;2023-12-29T12:07:03;13.19;65.46
75363;DHT22;64122;51.988;5.892;2023-12-29T12:09:36;13.19;65.48
75363;DHT22;64122;51.988;5.892;2023-12-29T12:12:06;13.23;65.57
75363;DHT22;64122;51.988;5.892;2023-12-29T12:14:45;13.14;65.58
75363;DHT22;64122;51.988;5.892;2023-12-29T12:17:12;13.15;65.70
75363;DHT22;64122;51.988;5.892;2023-12-29T12:19:57;13.15;65.69
75363;DHT22;64122;51.988;5.892;2023-12-29T12:22:30;13.20;65.59
75363;DHT22;64122;51.988;5.892;2023-12-29T12:25:03;13.20;65.50
75363;DHT22;64122;51.988;5.892;2023-12-29T12:27:33;13.21;65.53
75363;DHT22;64122;51.988;5.892;2023-12-29T12:30:03;13.17;65.59
75363;DHT22;64122;51.988;5.892;2023-12-29T12:32:32;13.06;65.80
75363;DHT22;64122;51.988;5.892;2023-12-29T12:35:02;13.04;65.92
75363;DHT22;64122;51.988;5.892;2023-12-29T12:37:31;13.08;65.96
75363;DHT22;64122;51.988;5.892;2023-12-29T12:40:04;13.12;65.95
75363;DHT22;64122;51.988;5.892;2023-12-29T12:42:38;13.14;65.90
75363;DHT22;64122;51.988;5.892;2023-12-29T12:45:11;13.10;66.05
75363;DHT22;64122;51.988;5.892;2023-12-29T12:47:41;13.07;66.34
75363;DHT22;64122;51.988;5.892;2023-12-29T12:50:13;13.11;66.15
75363;DHT22;64122;51.988;5.892;2023-12-29T12:52:42;13.09;66.14
75363;DHT22;64122;51.988;5.892;2023-12-29T12:55:14;13.02;66.56
75363;DHT22;64122;51.988;5.892;2023-12-29T12:57:44;12.97;66.46
75363;DHT22;64122;51.988;5.892;2023-12-29T13:00:14;12.94;66.57
75363;DHT22;64122;51.988;5.892;2023-12-29T13:02:44;12.88;66.65
75363;DHT22;64122;51.988;5.892;2023-12-29T13:05:15;12.93;66.67
75363;DHT22;64122;51.988;5.892;2023-12-29T13:07:45;12.95;66.53
75363;DHT22;64122;51.988;5.892;2023-12-29T13:10:17;12.92;66.55
75363;DHT22;64122;51.988;5.892;2023-12-29T13:12:52;12.95;66.49
75363;DHT22;64122;51.988;5.892;2023-12-29T13:15:22;12.93;66.65
75363;DHT22;64122;51.988;5.892;2023-12-29T13:17:51;12.90;66.84
75363;DHT22;64122;51.988;5.892;2023-12-29T13:20:21;12.90;66.94
75363;DHT22;64122;51.988;5.892;2023-12-29T13:22:50;12.90;66.98
75363;DHT22;64122;51.988;5.892;2023-12-29T13:25:25;12.89;67.03
75363;DHT22;64122;51.988;5.892;2023-12-29T13:27:55;12.93;66.96
75363;DHT22;64122;51.988;5.892;2023-12-29T13:30:25;12.91;66.93
75363;DHT22;64122;51.988;5.892;2023-12-29T13:32:55;12.90;67.07
75363;DHT22;64122;51.988;5.892;2023-12-29T13:35:31;12.92;67.05
75363;DHT22;64122;51.988;5.892;2023-12-29T13:38:05;12.95;67.05
75363;DHT22;64122;51.988;5.892;2023-12-29T13:40:42;13.01;66.91
75363;DHT22;64122;51.988;5.892;2023-12-29T13:43:14;13.06;66.83
75363;DHT22;64122;51.988;5.892;2023-12-29T13:45:46;13.09;66.81
75363;DHT22;64122;51.988;5.892;2023-12-29T13:48:16;13.02;66.75
75363;DHT22;64122;51.988;5.892;2023-12-29T13:50:46;12.93;66.94
75363;DHT22;64122;51.988;5.892;2023-12-29T13:53:18;12.90;67.08
75363;DHT22;64122;51.988;5.892;2023-12-29T13:55:51;12.87;67.19
75363;DHT22;64122;51.988;5.892;2023-12-29T13:58:20;12.85;67.27
75363;DHT22;64122;51.988;5.892;2023-12-29T14:00:56;12.86;67.35
75363;DHT22;64122;51.988;5.892;2023-12-29T14:03:32;12.87;67.40
75363;DHT22;64122;51.988;5.892;2023-12-29T14:06:04;12.91;67.33
75363;DHT22;64122;51.988;5.892;2023-12-29T14:08:40;12.92;67.37
75363;DHT22;64122;51.988;5.892;2023-12-29T14:11:12;12.90;67.42
75363;DHT22;64122;51.988;5.892;2023-12-29T14:13:43;12.92;67.59
75363;DHT22;64122;51.988;5.892;2023-12-29T14:16:14;12.92;67.62
75363;DHT22;64122;51.988;5.892;2023-12-29T14:18:52;12.92;67.62
75363;DHT22;64122;51.988;5.892;2023-12-29T14:21:23;12.95;67.75
75363;DHT22;64122;51.988;5.892;2023-12-29T14:24:06;12.96;67.69
75363;DHT22;64122;51.988;5.892;2023-12-29T14:26:38;12.97;67.81
75363;DHT22;64122;51.988;5.892;2023-12-29T14:29:11;12.96;67.91
75363;DHT22;64122;51.988;5.892;2023-12-29T14:31:41;12.96;68.07
75363;DHT22;64122;51.988;5.892;2023-12-29T14:34:12;12.99;68.04
75363;DHT22;64122;51.988;5.892;2023-12-29T14:36:42;12.96;68.20
75363;DHT22;64122;51.988;5.892;2023-12-29T14:39:12;12.95;68.31
75363;DHT22;64122;51.988;5.892;2023-12-29T14:41:44;12.94;68.48
75363;DHT22;64122;51.988;5.892;2023-12-29T14:44:14;12.79;68.91
75363;DHT22;64122;51.988;5.892;2023-12-29T14:46:43;12.82;69.49
75363;DHT22;64122;51.988;5.892;2023-12-29T14:49:12;12.76;69.91
75363;DHT22;64122;51.988;5.892;2023-12-29T14:51:41;12.69;70.60
75363;DHT22;64122;51.988;5.892;2023-12-29T14:54:10;12.62;71.07
75363;DHT22;64122;51.988;5.892;2023-12-29T14:56:40;12.46;71.46
75363;DHT22;64122;51.988;5.892;2023-12-29T14:59:11;12.40;71.78
75363;DHT22;64122;51.988;5.892;2023-12-29T15:01:41;12.35;71.97
75363;DHT22;64122;51.988;5.892;2023-12-29T15:04:10;12.28;72.12
75363;DHT22;64122;51.988;5.892;2023-12-29T15:06:41;12.21;72.35
75363;DHT22;64122;51.988;5.892;2023-12-29T15:09:11;12.20;72.48
75363;DHT22;64122;51.988;5.892;2023-12-29T15:11:40;12.20;72.57
75363;DHT22;64122;51.988;5.892;2023-12-29T15:14:12;12.19;72.61
75363;DHT22;64122;51.988;5.892;2023-12-29T15:16:41;12.20;72.58
75363;DHT22;64122;51.988;5.892;2023-12-29T15:19:10;12.17;72.77
75363;DHT22;64122;51.988;5.892;2023-12-29T15:21:39;12.16;72.87
75363;DHT22;64122;51.988;5.892;2023-12-29T15:24:09;12.15;73.11
75363;DHT22;64122;51.988;5.892;2023-12-29T15:26:38;12.20;73.05
75363;DHT22;64122;51.988;5.892;2023-12-29T15:29:07;12.18;72.97
75363;DHT22;64122;51.988;5.892;2023-12-29T15:31:42;12.16;73.00
75363;DHT22;64122;51.988;5.892;2023-12-29T15:34:11;12.15;72.90
75363;DHT22;64122;51.988;5.892;2023-12-29T15:36:40;12.18;72.85
75363;DHT22;64122;51.988;5.892;2023-12-29T15:39:09;12.20;72.90
75363;DHT22;64122;51.988;5.892;2023-12-29T15:41:39;12.21;73.07
75363;DHT22;64122;51.988;5.892;2023-12-29T15:44:08;12.25;73.00
75363;DHT22;64122;51.988;5.892;2023-12-29T15:46:40;12.29;73.06
75363;DHT22;64122;51.988;5.892;2023-12-29T15:49:09;12.34;73.00
75363;DHT22;64122;51.988;5.892;2023-12-29T15:51:38;12.27;73.19